sensor_id;sensor_type;location;lat;lon;timestamp;temperature;humidity
1650;DHT22;822;53.670;8.676;2023-05-10T00:00:07;14.70;93.80
1650;DHT22;822;53.670;8.676;2023-05-10T00:02:36;14.70;93.80
1650;DHT22;822;53.670;8.676;2023-05-10T00:05:03;14.70;93.80
1650;DHT22;822;53.670;8.676;2023-05-10T00:07:31;14.70;93.80
1650;DHT22;822;53.670;8.676;2023-05-10T00:09:58;14.70;93.80
1650;DHT22;822;53.670;8.676;2023-05-10T00:12:25;14.70;93.80
1650;DHT22;822;53.670;8.676;2023-05-10T00:14:52;14.70;93.70
1650;DHT22;822;53.670;8.676;2023-05-10T00:17:19;14.60;93.60
1650;DHT22;822;53.670;8.676;2023-05-10T00:19:47;14.60;93.50
1650;DHT22;822;53.670;8.676;2023-05-10T00:22:15;14.60;93.20
1650;DHT22;822;53.670;8.676;2023-05-10T00:24:42;14.60;93.30
1650;DHT22;822;53.670;8.676;2023-05-10T00:27:09;14.60;93.10
1650;DHT22;822;53.670;8.676;2023-05-10T00:29:36;14.50;92.60
1650;DHT22;822;53.670;8.676;2023-05-10T00:32:03;14.50;92.40
1650;DHT22;822;53.670;8.676;2023-05-10T00:34:31;14.50;92.20
1650;DHT22;822;53.670;8.676;2023-05-10T00:37:00;14.40;91.30
1650;DHT22;822;53.670;8.676;2023-05-10T00:39:27;14.40;90.80
1650;DHT22;822;53.670;8.676;2023-05-10T00:41:54;14.40;89.70
1650;DHT22;822;53.670;8.676;2023-05-10T00:44:21;14.40;88.00
1650;DHT22;822;53.670;8.676;2023-05-10T00:46:48;14.30;88.20
1650;DHT22;822;53.670;8.676;2023-05-10T00:49:16;14.30;87.10
1650;DHT22;822;53.670;8.676;2023-05-10T00:51:43;14.30;86.00
1650;DHT22;822;53.670;8.676;2023-05-10T00:54:14;14.30;85.30
1650;DHT22;822;53.670;8.676;2023-05-10T00:56:41;14.30;83.70
1650;DHT22;822;53.670;8.676;2023-05-10T00:59:09;14.30;82.30
1650;DHT22;822;53.670;8.676;2023-05-10T01:01:36;14.30;81.20
1650;DHT22;822;53.670;8.676;2023-05-10T01:04:04;14.30;80.20
1650;DHT22;822;53.670;8.676;2023-05-10T01:06:31;14.30;78.80
1650;DHT22;822;53.670;8.676;2023-05-10T01:08:59;14.20;77.90
1650;DHT22;822;53.670;8.676;2023-05-10T01:11:27;14.20;76.30
1650;DHT22;822;53.670;8.676;2023-05-10T01:13:56;14.20;75.70
1650;DHT22;822;53.670;8.676;2023-05-10T01:16:24;14.30;75.30
1650;DHT22;822;53.670;8.676;2023-05-10T01:18:51;14.20;74.60
1650;DHT22;822;53.670;8.676;2023-05-10T01:21:26;14.30;74.10
1650;DHT22;822;53.670;8.676;2023-05-10T01:24:17;14.30;72.50
1650;DHT22;822;53.670;8.676;2023-05-10T01:27:07;14.20;71.60
1650;DHT22;822;53.670;8.676;2023-05-10T01:32:55;14.20;70.30
1650;DHT22;822;53.670;8.676;2023-05-10T01:35:29;14.20;69.30
1650;DHT22;822;53.670;8.676;2023-05-10T01:38:04;14.20;68.60
1650;DHT22;822;53.670;8.676;2023-05-10T01:40:36;14.20;67.40
1650;DHT22;822;53.670;8.676;2023-05-10T01:43:19;14.20;67.90
1650;DHT22;822;53.670;8.676;2023-05-10T01:45:55;14.20;67.70
1650;DHT22;822;53.670;8.676;2023-05-10T01:48:27;14.20;67.90
1650;DHT22;822;53.670;8.676;2023-05-10T01:50:56;14.20;66.90
1650;DHT22;822;53.670;8.676;2023-05-10T01:53:25;14.20;66.90
1650;DHT22;822;53.670;8.676;2023-05-10T01:55:56;14.10;67.00
1650;DHT22;822;53.670;8.676;2023-05-10T01:58:28;14.10;66.90
1650;DHT22;822;53.670;8.676;2023-05-10T02:00:58;14.10;66.70
1650;DHT22;822;53.670;8.676;2023-05-10T02:03:28;14.10;66.20
1650;DHT22;822;53.670;8.676;2023-05-10T02:05:57;14.10;65.90
1650;DHT22;822;53.670;8.676;2023-05-10T02:08:26;14.10;65.80
1650;DHT22;822;53.670;8.676;2023-05-10T02:10:55;14.00;65.80
1650;DHT22;822;53.670;8.676;2023-05-10T02:13:27;14.00;65.70
1650;DHT22;822;53.670;8.676;2023-05-10T02:15:55;14.00;65.50
1650;DHT22;822;53.670;8.676;2023-05-10T02:18:24;14.00;65.60
1650;DHT22;822;53.670;8.676;2023-05-10T02:20:54;14.00;65.40
1650;DHT22;822;53.670;8.676;2023-05-10T02:23:23;14.00;65.50
1650;DHT22;822;53.670;8.676;2023-05-10T02:25:51;14.00;65.50
1650;DHT22;822;53.670;8.676;2023-05-10T02:28:19;13.90;65.50
1650;DHT22;822;53.670;8.676;2023-05-10T02:30:48;13.90;65.60
1650;DHT22;822;53.670;8.676;2023-05-10T02:33:15;13.90;65.70
1650;DHT22;822;53.670;8.676;2023-05-10T02:35:42;13.90;65.70
1650;DHT22;822;53.670;8.676;2023-05-10T02:38:11;13.90;65.70
1650;DHT22;822;53.670;8.676;2023-05-10T02:40:41;13.90;65.40
1650;DHT22;822;53.670;8.676;2023-05-10T02:43:12;13.80;65.20
1650;DHT22;822;53.670;8.676;2023-05-10T02:45:43;13.90;65.30
1650;DHT22;822;53.670;8.676;2023-05-10T02:48:13;13.80;65.20
1650;DHT22;822;53.670;8.676;2023-05-10T02:50:44;13.80;65.20
1650;DHT22;822;53.670;8.676;2023-05-10T02:53:20;13.80;65.10
1650;DHT22;822;53.670;8.676;2023-05-10T02:55:51;13.80;65.20
1650;DHT22;822;53.670;8.676;2023-05-10T02:58:21;13.80;65.50
1650;DHT22;822;53.670;8.676;2023-05-10T03:00:48;13.80;65.80
1650;DHT22;822;53.670;8.676;2023-05-10T03:03:16;13.80;66.20
1650;DHT22;822;53.670;8.676;2023-05-10T03:05:43;13.70;66.50
1650;DHT22;822;53.670;8.676;2023-05-10T03:08:10;13.70;66.70
1650;DHT22;822;53.670;8.676;2023-05-10T03:10:47;13.70;66.70
1650;DHT22;822;53.670;8.676;2023-05-10T03:13:27;13.60;66.90
1650;DHT22;822;53.670;8.676;2023-05-10T03:15:59;13.60;66.90
1650;DHT22;822;53.670;8.676;2023-05-10T03:18:32;13.60;66.90
1650;DHT22;822;53.670;8.676;2023-05-10T03:21:02;13.60;66.80
1650;DHT22;822;53.670;8.676;2023-05-10T03:23:35;13.50;66.80
1650;DHT22;822;53.670;8.676;2023-05-10T03:26:08;13.60;67.00
1650;DHT22;822;53.670;8.676;2023-05-10T03:28:35;13.50;66.90
1650;DHT22;822;53.670;8.676;2023-05-10T03:31:04;13.50;67.00
1650;DHT22;822;53.670;8.676;2023-05-10T03:33:32;13.50;67.10
1650;DHT22;822;53.670;8.676;2023-05-10T03:35:59;13.40;67.00
1650;DHT22;822;53.670;8.676;2023-05-10T03:38:26;13.40;67.10
1650;DHT22;822;53.670;8.676;2023-05-10T03:40:53;13.40;67.30
1650;DHT22;822;53.670;8.676;2023-05-10T03:43:22;13.40;67.40
1650;DHT22;822;53.670;8.676;2023-05-10T03:45:49;13.40;67.40
1650;DHT22;822;53.670;8.676;2023-05-10T03:48:16;13.40;67.30
1650;DHT22;822;53.670;8.676;2023-05-10T03:50:43;13.40;67.30
1650;DHT22;822;53.670;8.676;2023-05-10T03:53:11;13.40;67.50
1650;DHT22;822;53.670;8.676;2023-05-10T03:55:38;13.40;67.60
1650;DHT22;822;53.670;8.676;2023-05-10T03:58:05;13.40;67.60
1650;DHT22;822;53.670;8.676;2023-05-10T04:00:34;13.40;67.40
1650;DHT22;822;53.670;8.676;2023-05-10T04:03:01;13.40;67.40
1650;DHT22;822;53.670;8.676;2023-05-10T04:05:29;13.40;67.40
1650;DHT22;822;53.670;8.676;2023-05-10T04:07:56;13.40;67.40
1650;DHT22;822;53.670;8.676;2023-05-10T04:10:23;13.40;67.50
1650;DHT22;822;53.670;8.676;2023-05-10T04:12:50;13.40;67.60
1650;DHT22;822;53.670;8.676;2023-05-10T04:15:17;13.40;67.70
1650;DHT22;822;53.670;8.676;2023-05-10T04:17:46;13.40;67.90
1650;DHT22;822;53.670;8.676;2023-05-10T04:20:13;13.40;68.30
1650;DHT22;822;53.670;8.676;2023-05-10T04:22:40;13.40;68.60
1650;DHT22;822;53.670;8.676;2023-05-10T04:25:08;13.40;69.10
1650;DHT22;822;53.670;8.676;2023-05-10T04:27:35;13.40;69.50
1650;DHT22;822;53.670;8.676;2023-05-10T04:30:03;13.40;69.90
1650;DHT22;822;53.670;8.676;2023-05-10T04:32:30;13.40;70.10
1650;DHT22;822;53.670;8.676;2023-05-10T04:34:59;13.40;70.20
1650;DHT22;822;53.670;8.676;2023-05-10T04:37:28;13.40;70.20
1650;DHT22;822;53.670;8.676;2023-05-10T04:39:56;13.40;70.10
1650;DHT22;822;53.670;8.676;2023-05-10T04:42:25;13.40;70.30
1650;DHT22;822;53.670;8.676;2023-05-10T04:44:52;13.40;70.50
1650;DHT22;822;53.670;8.676;2023-05-10T04:47:19;13.40;70.80
1650;DHT22;822;53.670;8.676;2023-05-10T04:49:46;13.40;71.20
1650;DHT22;822;53.670;8.676;2023-05-10T04:52:14;13.30;71.30
1650;DHT22;822;53.670;8.676;2023-05-10T04:54:43;13.30;71.60
1650;DHT22;822;53.670;8.676;2023-05-10T04:57:10;13.30;71.60
1650;DHT22;822;53.670;8.676;2023-05-10T04:59:37;13.30;71.80
1650;DHT22;822;53.670;8.676;2023-05-10T05:02:05;13.30;72.20
1650;DHT22;822;53.670;8.676;2023-05-10T05:04:32;13.40;73.00
1650;DHT22;822;53.670;8.676;2023-05-10T05:06:59;13.40;73.50
1650;DHT22;822;53.670;8.676;2023-05-10T05:09:28;13.40;74.10
1650;DHT22;822;53.670;8.676;2023-05-10T05:11:55;13.40;74.30
1650;DHT22;822;53.670;8.676;2023-05-10T05:14:22;13.30;74.50
1650;DHT22;822;53.670;8.676;2023-05-10T05:16:50;13.30;75.20
1650;DHT22;822;53.670;8.676;2023-05-10T05:19:18;13.30;75.70
1650;DHT22;822;53.670;8.676;2023-05-10T05:21:45;13.30;76.30
1650;DHT22;822;53.670;8.676;2023-05-10T05:24:12;13.30;76.80
1650;DHT22;822;53.670;8.676;2023-05-10T05:26:40;13.30;77.30
1650;DHT22;822;53.670;8.676;2023-05-10T05:29:07;13.30;77.60
1650;DHT22;822;53.670;8.676;2023-05-10T05:31:34;13.30;78.00
1650;DHT22;822;53.670;8.676;2023-05-10T05:34:02;13.30;78.60
1650;DHT22;822;53.670;8.676;2023-05-10T05:36:29;13.30;79.20
1650;DHT22;822;53.670;8.676;2023-05-10T05:38:57;13.20;79.60
1650;DHT22;822;53.670;8.676;2023-05-10T05:41:24;13.20;79.90
1650;DHT22;822;53.670;8.676;2023-05-10T05:43:53;13.20;80.80
1650;DHT22;822;53.670;8.676;2023-05-10T05:46:20;13.20;81.00
1650;DHT22;822;53.670;8.676;2023-05-10T05:48:47;13.20;81.40
1650;DHT22;822;53.670;8.676;2023-05-10T05:51:14;13.20;82.20
1650;DHT22;822;53.670;8.676;2023-05-10T05:53:41;13.10;82.70
1650;DHT22;822;53.670;8.676;2023-05-10T05:56:08;13.10;82.90
1650;DHT22;822;53.670;8.676;2023-05-10T05:58:35;13.10;83.20
1650;DHT22;822;53.670;8.676;2023-05-10T06:01:04;13.10;83.40
1650;DHT22;822;53.670;8.676;2023-05-10T06:03:31;13.10;84.00
1650;DHT22;822;53.670;8.676;2023-05-10T06:05:58;13.10;84.90
1650;DHT22;822;53.670;8.676;2023-05-10T06:08:25;13.10;85.30
1650;DHT22;822;53.670;8.676;2023-05-10T06:10:53;13.10;86.00
1650;DHT22;822;53.670;8.676;2023-05-10T06:13:20;13.10;86.70
1650;DHT22;822;53.670;8.676;2023-05-10T06:15:47;13.10;87.20
1650;DHT22;822;53.670;8.676;2023-05-10T06:18:15;13.10;87.90
1650;DHT22;822;53.670;8.676;2023-05-10T06:20:42;13.10;88.50
1650;DHT22;822;53.670;8.676;2023-05-10T06:23:10;13.00;89.00
1650;DHT22;822;53.670;8.676;2023-05-10T06:25:37;13.10;89.20
1650;DHT22;822;53.670;8.676;2023-05-10T06:28:04;13.10;90.00
1650;DHT22;822;53.670;8.676;2023-05-10T06:30:31;13.00;90.10
1650;DHT22;822;53.670;8.676;2023-05-10T06:33:01;13.10;90.30
1650;DHT22;822;53.670;8.676;2023-05-10T06:35:30;13.10;90.30
1650;DHT22;822;53.670;8.676;2023-05-10T06:38:02;13.00;90.60
1650;DHT22;822;53.670;8.676;2023-05-10T06:40:29;13.10;90.50
1650;DHT22;822;53.670;8.676;2023-05-10T06:42:56;13.00;90.30
1650;DHT22;822;53.670;8.676;2023-05-10T06:45:26;13.00;90.40
1650;DHT22;822;53.670;8.676;2023-05-10T06:47:53;12.90;90.30
1650;DHT22;822;53.670;8.676;2023-05-10T06:50:26;12.90;90.40
1650;DHT22;822;53.670;8.676;2023-05-10T06:52:55;12.90;90.30
1650;DHT22;822;53.670;8.676;2023-05-10T06:55:22;12.90;90.70
1650;DHT22;822;53.670;8.676;2023-05-10T06:57:49;12.90;90.90
1650;DHT22;822;53.670;8.676;2023-05-10T07:00:17;12.90;91.20
1650;DHT22;822;53.670;8.676;2023-05-10T07:02:44;12.80;91.20
1650;DHT22;822;53.670;8.676;2023-05-10T07:05:12;12.80;91.40
1650;DHT22;822;53.670;8.676;2023-05-10T07:07:39;12.80;91.80
1650;DHT22;822;53.670;8.676;2023-05-10T07:10:08;12.80;92.00
1650;DHT22;822;53.670;8.676;2023-05-10T07:12:36;12.80;92.20
1650;DHT22;822;53.670;8.676;2023-05-10T07:15:04;12.80;92.40
1650;DHT22;822;53.670;8.676;2023-05-10T07:17:31;12.70;92.70
1650;DHT22;822;53.670;8.676;2023-05-10T07:19:59;12.80;92.90
1650;DHT22;822;53.670;8.676;2023-05-10T07:22:26;12.70;93.10
1650;DHT22;822;53.670;8.676;2023-05-10T07:24:53;12.70;93.30
1650;DHT22;822;53.670;8.676;2023-05-10T07:27:22;12.70;93.40
1650;DHT22;822;53.670;8.676;2023-05-10T07:29:49;12.70;93.60
1650;DHT22;822;53.670;8.676;2023-05-10T07:32:16;12.60;93.80
1650;DHT22;822;53.670;8.676;2023-05-10T07:34:43;12.60;93.90
1650;DHT22;822;53.670;8.676;2023-05-10T07:37:10;12.60;94.10
1650;DHT22;822;53.670;8.676;2023-05-10T07:39:37;12.50;94.20
1650;DHT22;822;53.670;8.676;2023-05-10T07:42:04;12.50;94.30
1650;DHT22;822;53.670;8.676;2023-05-10T07:44:33;12.50;94.40
1650;DHT22;822;53.670;8.676;2023-05-10T07:47:00;12.50;94.60
1650;DHT22;822;53.670;8.676;2023-05-10T07:49:27;12.40;94.60
1650;DHT22;822;53.670;8.676;2023-05-10T07:51:54;12.40;94.80
1650;DHT22;822;53.670;8.676;2023-05-10T07:54:21;12.30;94.80
1650;DHT22;822;53.670;8.676;2023-05-10T07:56:49;12.30;94.90
1650;DHT22;822;53.670;8.676;2023-05-10T07:59:17;12.30;95.10
1650;DHT22;822;53.670;8.676;2023-05-10T08:01:46;12.30;95.30
1650;DHT22;822;53.670;8.676;2023-05-10T08:04:13;12.30;95.30
1650;DHT22;822;53.670;8.676;2023-05-10T08:06:41;12.30;95.60
1650;DHT22;822;53.670;8.676;2023-05-10T08:09:08;12.30;96.00
1650;DHT22;822;53.670;8.676;2023-05-10T08:11:36;12.30;95.90
1650;DHT22;822;53.670;8.676;2023-05-10T08:14:03;12.30;96.00
1650;DHT22;822;53.670;8.676;2023-05-10T08:16:30;12.30;96.10
1650;DHT22;822;53.670;8.676;2023-05-10T08:18:59;12.30;96.10
1650;DHT22;822;53.670;8.676;2023-05-10T08:21:26;12.30;96.20
1650;DHT22;822;53.670;8.676;2023-05-10T08:23:53;12.40;96.40
1650;DHT22;822;53.670;8.676;2023-05-10T08:26:21;12.30;96.40
1650;DHT22;822;53.670;8.676;2023-05-10T08:28:48;12.30;96.50
1650;DHT22;822;53.670;8.676;2023-05-10T08:31:15;12.30;96.60
1650;DHT22;822;53.670;8.676;2023-05-10T08:33:43;12.40;96.70
1650;DHT22;822;53.670;8.676;2023-05-10T08:36:18;12.40;96.80
1650;DHT22;822;53.670;8.676;2023-05-10T08:38:49;12.40;96.90
1650;DHT22;822;53.670;8.676;2023-05-10T08:41:17;12.50;97.00
1650;DHT22;822;53.670;8.676;2023-05-10T08:43:46;12.50;97.00
1650;DHT22;822;53.670;8.676;2023-05-10T08:46:15;12.50;97.10
1650;DHT22;822;53.670;8.676;2023-05-10T08:48:44;12.60;97.20
1650;DHT22;822;53.670;8.676;2023-05-10T08:51:13;12.70;97.20
1650;DHT22;822;53.670;8.676;2023-05-10T08:53:44;12.70;97.30
1650;DHT22;822;53.670;8.676;2023-05-10T08:56:11;12.80;97.40
1650;DHT22;822;53.670;8.676;2023-05-10T08:58:38;12.80;97.40
1650;DHT22;822;53.670;8.676;2023-05-10T09:01:06;12.90;97.50
1650;DHT22;822;53.670;8.676;2023-05-10T09:03:33;13.00;97.60
1650;DHT22;822;53.670;8.676;2023-05-10T09:06:00;13.00;97.60
1650;DHT22;822;53.670;8.676;2023-05-10T09:08:27;13.10;97.70
1650;DHT22;822;53.670;8.676;2023-05-10T09:10:58;13.20;97.70
1650;DHT22;822;53.670;8.676;2023-05-10T09:13:30;13.30;97.80
1650;DHT22;822;53.670;8.676;2023-05-10T09:16:02;13.30;97.80
1650;DHT22;822;53.670;8.676;2023-05-10T09:18:31;13.40;97.90
1650;DHT22;822;53.670;8.676;2023-05-10T09:21:01;13.50;97.80
1650;DHT22;822;53.670;8.676;2023-05-10T09:23:30;13.60;97.80
1650;DHT22;822;53.670;8.676;2023-05-10T09:26:06;13.60;97.90
1650;DHT22;822;53.670;8.676;2023-05-10T09:28:35;13.70;98.00
1650;DHT22;822;53.670;8.676;2023-05-10T09:31:17;13.80;98.10
1650;DHT22;822;53.670;8.676;2023-05-10T09:33:49;13.90;98.10
1650;DHT22;822;53.670;8.676;2023-05-10T09:36:20;14.00;98.10
1650;DHT22;822;53.670;8.676;2023-05-10T09:38:48;14.10;98.10
1650;DHT22;822;53.670;8.676;2023-05-10T09:41:20;14.00;98.10
1650;DHT22;822;53.670;8.676;2023-05-10T09:43:50;14.10;98.30
1650;DHT22;822;53.670;8.676;2023-05-10T09:46:25;14.20;98.30
1650;DHT22;822;53.670;8.676;2023-05-10T09:48:53;14.30;98.30
1650;DHT22;822;53.670;8.676;2023-05-10T09:51:22;14.40;98.40
1650;DHT22;822;53.670;8.676;2023-05-10T09:54:09;14.40;98.30
1650;DHT22;822;53.670;8.676;2023-05-10T09:56:42;14.50;98.40
1650;DHT22;822;53.670;8.676;2023-05-10T09:59:13;14.50;98.30
1650;DHT22;822;53.670;8.676;2023-05-10T10:01:41;14.50;98.30
1650;DHT22;822;53.670;8.676;2023-05-10T10:04:12;14.60;98.30
1650;DHT22;822;53.670;8.676;2023-05-10T10:06:41;14.60;98.30
1650;DHT22;822;53.670;8.676;2023-05-10T10:09:09;14.60;98.20
1650;DHT22;822;53.670;8.676;2023-05-10T10:11:38;14.60;98.20
1650;DHT22;822;53.670;8.676;2023-05-10T10:14:12;14.50;98.20
1650;DHT22;822;53.670;8.676;2023-05-10T10:16:40;14.60;98.20
1650;DHT22;822;53.670;8.676;2023-05-10T10:19:08;14.60;98.30
1650;DHT22;822;53.670;8.676;2023-05-10T10:21:37;14.70;98.30
1650;DHT22;822;53.670;8.676;2023-05-10T10:24:08;14.70;98.20
1650;DHT22;822;53.670;8.676;2023-05-10T10:26:39;14.70;98.20
1650;DHT22;822;53.670;8.676;2023-05-10T10:29:20;14.70;98.00
1650;DHT22;822;53.670;8.676;2023-05-10T10:31:57;14.70;98.10
1650;DHT22;822;53.670;8.676;2023-05-10T10:34:33;14.80;98.20
1650;DHT22;822;53.670;8.676;2023-05-10T10:37:05;14.90;98.10
1650;DHT22;822;53.670;8.676;2023-05-10T10:39:35;14.90;98.00
1650;DHT22;822;53.670;8.676;2023-05-10T10:42:06;14.90;97.60
1650;DHT22;822;53.670;8.676;2023-05-10T10:44:38;14.80;97.70
1650;DHT22;822;53.670;8.676;2023-05-10T10:47:24;14.90;97.70
1650;DHT22;822;53.670;8.676;2023-05-10T10:50:07;14.90;97.70
1650;DHT22;822;53.670;8.676;2023-05-10T10:52:38;14.90;97.70
1650;DHT22;822;53.670;8.676;2023-05-10T10:55:13;14.90;97.70
1650;DHT22;822;53.670;8.676;2023-05-10T10:57:49;14.90;97.70
1650;DHT22;822;53.670;8.676;2023-05-10T11:00:24;14.90;97.60
1650;DHT22;822;53.670;8.676;2023-05-10T11:03:04;15.00;97.70
1650;DHT22;822;53.670;8.676;2023-05-10T11:05:41;15.00;97.90
1650;DHT22;822;53.670;8.676;2023-05-10T11:08:14;15.20;98.00
1650;DHT22;822;53.670;8.676;2023-05-10T11:11:02;15.30;97.70
1650;DHT22;822;53.670;8.676;2023-05-10T11:13:32;15.30;97.70
1650;DHT22;822;53.670;8.676;2023-05-10T11:16:14;15.40;97.80
1650;DHT22;822;53.670;8.676;2023-05-10T11:18:52;15.30;97.20
1650;DHT22;822;53.670;8.676;2023-05-10T11:21:23;15.20;97.00
1650;DHT22;822;53.670;8.676;2023-05-10T11:23:53;15.20;97.10
1650;DHT22;822;53.670;8.676;2023-05-10T11:26:31;15.10;97.10
1650;DHT22;822;53.670;8.676;2023-05-10T11:29:00;15.20;97.20
1650;DHT22;822;53.670;8.676;2023-05-10T11:31:33;15.20;97.40
1650;DHT22;822;53.670;8.676;2023-05-10T11:34:00;15.40;97.60
1650;DHT22;822;53.670;8.676;2023-05-10T11:36:31;15.60;97.80
1650;DHT22;822;53.670;8.676;2023-05-10T11:39:02;15.70;97.70
1650;DHT22;822;53.670;8.676;2023-05-10T11:41:31;15.70;97.40
1650;DHT22;822;53.670;8.676;2023-05-10T11:43:59;15.80;97.10
1650;DHT22;822;53.670;8.676;2023-05-10T11:46:27;15.80;96.70
1650;DHT22;822;53.670;8.676;2023-05-10T11:48:58;15.70;96.40
1650;DHT22;822;53.670;8.676;2023-05-10T11:51:27;15.70;96.10
1650;DHT22;822;53.670;8.676;2023-05-10T11:53:56;15.70;96.00
1650;DHT22;822;53.670;8.676;2023-05-10T11:56:23;15.60;96.00
1650;DHT22;822;53.670;8.676;2023-05-10T11:58:55;15.60;95.70
1650;DHT22;822;53.670;8.676;2023-05-10T12:01:24;15.50;95.90
1650;DHT22;822;53.670;8.676;2023-05-10T12:03:53;15.50;95.90
1650;DHT22;822;53.670;8.676;2023-05-10T12:06:26;15.40;96.10
1650;DHT22;822;53.670;8.676;2023-05-10T12:08:54;15.40;96.20
1650;DHT22;822;53.670;8.676;2023-05-10T12:11:25;15.40;96.40
1650;DHT22;822;53.670;8.676;2023-05-10T12:13:53;15.50;96.60
1650;DHT22;822;53.670;8.676;2023-05-10T12:16:22;15.50;96.70
1650;DHT22;822;53.670;8.676;2023-05-10T12:18:50;15.60;96.70
1650;DHT22;822;53.670;8.676;2023-05-10T12:21:18;15.60;96.80
1650;DHT22;822;53.670;8.676;2023-05-10T12:23:49;15.60;96.60
1650;DHT22;822;53.670;8.676;2023-05-10T12:26:17;15.60;96.30
1650;DHT22;822;53.670;8.676;2023-05-10T12:28:44;15.60;96.50
1650;DHT22;822;53.670;8.676;2023-05-10T12:31:16;15.60;96.50
1650;DHT22;822;53.670;8.676;2023-05-10T12:33:49;15.60;96.50
1650;DHT22;822;53.670;8.676;2023-05-10T12:36:16;15.60;96.60
1650;DHT22;822;53.670;8.676;2023-05-10T12:38:51;15.70;96.50
1650;DHT22;822;53.670;8.676;2023-05-10T12:41:28;15.70;96.50
1650;DHT22;822;53.670;8.676;2023-05-10T12:43:55;15.80;96.60
1650;DHT22;822;53.670;8.676;2023-05-10T12:46:22;15.80;96.70
1650;DHT22;822;53.670;8.676;2023-05-10T12:48:50;15.80;96.20
1650;DHT22;822;53.670;8.676;2023-05-10T12:51:20;15.90;96.30
1650;DHT22;822;53.670;8.676;2023-05-10T12:53:48;15.90;96.30
1650;DHT22;822;53.670;8.676;2023-05-10T12:56:17;16.00;96.50
1650;DHT22;822;53.670;8.676;2023-05-10T12:58:44;16.10;96.70
1650;DHT22;822;53.670;8.676;2023-05-10T13:01:13;16.20;96.70
1650;DHT22;822;53.670;8.676;2023-05-10T13:03:40;16.30;96.60
1650;DHT22;822;53.670;8.676;2023-05-10T13:06:09;16.30;96.50
1650;DHT22;822;53.670;8.676;2023-05-10T13:08:42;16.40;96.40
1650;DHT22;822;53.670;8.676;2023-05-10T13:11:09;16.40;96.20
1650;DHT22;822;53.670;8.676;2023-05-10T13:13:37;16.40;96.10
1650;DHT22;822;53.670;8.676;2023-05-10T13:16:05;16.40;95.80
1650;DHT22;822;53.670;8.676;2023-05-10T13:18:35;16.30;95.60
1650;DHT22;822;53.670;8.676;2023-05-10T13:21:06;16.30;95.60
1650;DHT22;822;53.670;8.676;2023-05-10T13:23:33;16.30;96.00
1650;DHT22;822;53.670;8.676;2023-05-10T13:26:00;16.30;95.80
1650;DHT22;822;53.670;8.676;2023-05-10T13:28:27;16.30;95.80
1650;DHT22;822;53.670;8.676;2023-05-10T13:30:57;16.30;95.80
1650;DHT22;822;53.670;8.676;2023-05-10T13:33:25;16.40;95.80
1650;DHT22;822;53.670;8.676;2023-05-10T13:35:52;16.40;95.90
1650;DHT22;822;53.670;8.676;2023-05-10T13:38:19;16.40;95.80
1650;DHT22;822;53.670;8.676;2023-05-10T13:40:46;16.40;95.60
1650;DHT22;822;53.670;8.676;2023-05-10T13:43:13;16.40;95.10
1650;DHT22;822;53.670;8.676;2023-05-10T13:45:40;16.20;95.10
1650;DHT22;822;53.670;8.676;2023-05-10T13:48:09;16.20;95.40
1650;DHT22;822;53.670;8.676;2023-05-10T13:50:36;16.20;95.20
1650;DHT22;822;53.670;8.676;2023-05-10T13:53:04;16.20;95.30
1650;DHT22;822;53.670;8.676;2023-05-10T13:55:31;16.20;95.40
1650;DHT22;822;53.670;8.676;2023-05-10T13:57:58;16.10;95.40
1650;DHT22;822;53.670;8.676;2023-05-10T14:00:28;16.10;95.30
1650;DHT22;822;53.670;8.676;2023-05-10T14:02:56;16.00;95.00
1650;DHT22;822;53.670;8.676;2023-05-10T14:05:24;15.90;94.90
1650;DHT22;822;53.670;8.676;2023-05-10T14:07:52;15.70;94.80
1650;DHT22;822;53.670;8.676;2023-05-10T14:10:19;15.60;95.00
1650;DHT22;822;53.670;8.676;2023-05-10T14:12:46;15.50;95.00
1650;DHT22;822;53.670;8.676;2023-05-10T14:15:13;15.40;94.90
1650;DHT22;822;53.670;8.676;2023-05-10T14:17:40;15.30;94.80
1650;DHT22;822;53.670;8.676;2023-05-10T14:20:08;15.20;94.90
1650;DHT22;822;53.670;8.676;2023-05-10T14:22:37;15.20;94.80
1650;DHT22;822;53.670;8.676;2023-05-10T14:25:04;15.10;95.00
1650;DHT22;822;53.670;8.676;2023-05-10T14:27:32;15.00;95.00
1650;DHT22;822;53.670;8.676;2023-05-10T14:29:59;15.00;95.00
1650;DHT22;822;53.670;8.676;2023-05-10T14:32:26;14.90;95.20
1650;DHT22;822;53.670;8.676;2023-05-10T14:34:54;14.90;95.20
1650;DHT22;822;53.670;8.676;2023-05-10T14:37:21;14.90;95.30
1650;DHT22;822;53.670;8.676;2023-05-10T14:39:50;14.80;95.30
1650;DHT22;822;53.670;8.676;2023-05-10T14:42:18;14.80;95.20
1650;DHT22;822;53.670;8.676;2023-05-10T14:44:45;14.70;95.30
1650;DHT22;822;53.670;8.676;2023-05-10T14:47:12;14.70;95.30
1650;DHT22;822;53.670;8.676;2023-05-10T14:49:39;14.70;95.30
1650;DHT22;822;53.670;8.676;2023-05-10T14:52:06;14.70;95.30
1650;DHT22;822;53.670;8.676;2023-05-10T14:54:33;14.60;95.20
1650;DHT22;822;53.670;8.676;2023-05-10T14:57:02;14.50;95.20
1650;DHT22;822;53.670;8.676;2023-05-10T14:59:29;14.50;95.40
1650;DHT22;822;53.670;8.676;2023-05-10T15:01:56;14.40;95.50
1650;DHT22;822;53.670;8.676;2023-05-10T15:04:23;14.40;95.60
1650;DHT22;822;53.670;8.676;2023-05-10T15:06:50;14.40;95.70
1650;DHT22;822;53.670;8.676;2023-05-10T15:09:17;14.40;95.80
1650;DHT22;822;53.670;8.676;2023-05-10T15:11:45;14.40;95.90
1650;DHT22;822;53.670;8.676;2023-05-10T15:14:14;14.30;95.90
1650;DHT22;822;53.670;8.676;2023-05-10T15:16:41;14.30;96.00
1650;DHT22;822;53.670;8.676;2023-05-10T15:19:08;14.20;96.10
1650;DHT22;822;53.670;8.676;2023-05-10T15:21:35;14.30;96.30
1650;DHT22;822;53.670;8.676;2023-05-10T15:24:10;14.20;96.30
1650;DHT22;822;53.670;8.676;2023-05-10T15:26:37;14.20;96.00
1650;DHT22;822;53.670;8.676;2023-05-10T15:29:05;14.20;96.40
1650;DHT22;822;53.670;8.676;2023-05-10T15:31:33;14.10;96.50
1650;DHT22;822;53.670;8.676;2023-05-10T15:34:01;14.20;96.60
1650;DHT22;822;53.670;8.676;2023-05-10T15:36:28;14.20;96.70
1650;DHT22;822;53.670;8.676;2023-05-10T15:38:55;14.10;96.70
1650;DHT22;822;53.670;8.676;2023-05-10T15:41:22;14.10;96.80
1650;DHT22;822;53.670;8.676;2023-05-10T15:43:51;14.10;96.90
1650;DHT22;822;53.670;8.676;2023-05-10T15:46:18;14.10;96.90
1650;DHT22;822;53.670;8.676;2023-05-10T15:48:46;14.20;97.10
1650;DHT22;822;53.670;8.676;2023-05-10T15:51:13;14.20;97.20
1650;DHT22;822;53.670;8.676;2023-05-10T15:53:41;14.20;97.20
1650;DHT22;822;53.670;8.676;2023-05-10T15:56:11;14.20;97.30
1650;DHT22;822;53.670;8.676;2023-05-10T15:58:39;14.30;97.30
1650;DHT22;822;53.670;8.676;2023-05-10T16:01:06;14.20;97.00
1650;DHT22;822;53.670;8.676;2023-05-10T16:03:33;14.20;97.10
1650;DHT22;822;53.670;8.676;2023-05-10T16:06:02;14.20;97.10
1650;DHT22;822;53.670;8.676;2023-05-10T16:08:29;14.20;97.10
1650;DHT22;822;53.670;8.676;2023-05-10T16:10:58;14.10;97.00
1650;DHT22;822;53.670;8.676;2023-05-10T16:13:25;14.10;96.70
1650;DHT22;822;53.670;8.676;2023-05-10T16:15:52;14.00;96.90
1650;DHT22;822;53.670;8.676;2023-05-10T16:18:19;14.00;97.10
1650;DHT22;822;53.670;8.676;2023-05-10T16:20:47;14.00;97.10
1650;DHT22;822;53.670;8.676;2023-05-10T16:23:15;14.00;97.10
1650;DHT22;822;53.670;8.676;2023-05-10T16:25:44;14.00;97.10
1650;DHT22;822;53.670;8.676;2023-05-10T16:28:11;14.00;97.20
1650;DHT22;822;53.670;8.676;2023-05-10T16:30:38;14.00;97.30